createdAt,value
2022-09-21T00:00:35.520Z,11.74
2022-09-21T00:01:38.887Z,11.74
2022-09-21T00:02:41.210Z,11.87
2022-09-21T00:03:44.467Z,11.90
2022-09-21T00:04:47.785Z,11.94
2022-09-21T00:05:50.106Z,11.95
2022-09-21T00:06:53.314Z,11.91
2022-09-21T00:07:56.738Z,11.90
2022-09-21T00:08:59.085Z,11.79
2022-09-21T00:10:02.363Z,11.86
2022-09-21T00:11:05.622Z,11.91
2022-09-21T00:12:11.521Z,11.92
2022-09-21T00:13:14.242Z,12.05
2022-09-21T00:14:19.980Z,12.07
2022-09-21T00:15:23.368Z,12.06
2022-09-21T00:16:27.934Z,12.00
2022-09-21T00:17:31.429Z,12.00
2022-09-21T00:18:34.971Z,12.07
2022-09-21T00:19:38.742Z,12.13
2022-09-21T00:20:44.145Z,11.99
2022-09-21T00:21:47.910Z,11.93
2022-09-21T00:22:51.605Z,11.97
2022-09-21T00:23:53.857Z,11.97
2022-09-21T00:24:57.147Z,11.86
2022-09-21T00:26:07.930Z,11.96
2022-09-21T00:27:11.104Z,12.02
2022-09-21T00:28:14.370Z,11.98
2022-09-21T00:29:17.822Z,12.12
2022-09-21T00:30:21.570Z,11.94
2022-09-21T00:31:25.212Z,11.95
2022-09-21T00:32:28.754Z,11.96
2022-09-21T00:33:32.361Z,11.90
2022-09-21T00:34:35.008Z,12.03
2022-09-21T00:35:38.056Z,12.13
2022-09-21T00:36:41.649Z,12.09
2022-09-21T00:37:44.205Z,12.15
2022-09-21T00:38:52.068Z,12.05
2022-09-21T00:39:55.463Z,12.11
2022-09-21T00:40:59.193Z,12.14
2022-09-21T00:42:03.119Z,12.07
2022-09-21T00:43:14.348Z,12.09
2022-09-21T00:44:28.300Z,12.05
2022-09-21T00:45:31.116Z,12.10
2022-09-21T00:46:36.222Z,12.26
2022-09-21T00:47:41.849Z,12.28
2022-09-21T00:48:47.196Z,12.41
2022-09-21T00:49:52.637Z,12.42
2022-09-21T00:50:57.194Z,12.39
2022-09-21T00:52:02.662Z,12.43
2022-09-21T00:53:07.375Z,12.23
2022-09-21T00:54:12.839Z,12.21
2022-09-21T00:55:17.205Z,12.09
2022-09-21T00:56:22.019Z,12.12
2022-09-21T00:57:27.308Z,11.97
2022-09-21T00:58:32.921Z,11.96
2022-09-21T00:59:37.770Z,12.12
2022-09-21T01:00:42.160Z,12.20
2022-09-21T01:01:45.411Z,12.27
2022-09-21T01:02:48.362Z,12.23
2022-09-21T01:03:53.679Z,12.18
2022-09-21T01:04:57.436Z,12.04
2022-09-21T01:06:00.561Z,12.07
2022-09-21T01:07:05.276Z,12.11
2022-09-21T01:08:14.726Z,12.02
2022-09-21T01:09:19.734Z,12.09
2022-09-21T01:10:26.458Z,12.05
2022-09-21T01:11:32.739Z,12.11
2022-09-21T01:12:43.859Z,12.13
2022-09-21T01:14:00.958Z,12.13
2022-09-21T01:15:22.538Z,12.18
2022-09-21T01:16:29.420Z,12.11
2022-09-21T01:17:35.905Z,12.10
2022-09-21T01:19:00.195Z,12.23
2022-09-21T01:20:08.353Z,12.26
2022-09-21T01:21:19.102Z,12.23
2022-09-21T01:22:38.878Z,12.14
2022-09-21T01:23:46.140Z,12.19
2022-09-21T01:25:06.983Z,12.20
2022-09-21T01:26:13.983Z,12.24
2022-09-21T01:27:27.296Z,12.27
2022-09-21T01:28:32.649Z,12.33
2022-09-21T01:29:52.379Z,12.33
2022-09-21T01:30:57.667Z,12.43
2022-09-21T01:32:11.686Z,12.30
2022-09-21T01:33:16.645Z,12.25
2022-09-21T01:34:26.117Z,12.10
2022-09-21T01:35:32.577Z,12.04
2022-09-21T01:36:37.203Z,12.13
2022-09-21T01:37:41.722Z,12.16
2022-09-21T01:38:51.507Z,12.17
2022-09-21T01:39:57.713Z,12.10
2022-09-21T01:41:04.473Z,12.12
2022-09-21T01:42:10.143Z,12.15
2022-09-21T01:43:17.317Z,12.26
2022-09-21T01:44:22.795Z,12.29
2022-09-21T01:45:27.069Z,12.35
2022-09-21T01:46:31.198Z,12.28
2022-09-21T01:47:36.109Z,12.31
2022-09-21T01:48:41.587Z,12.24
2022-09-21T01:49:49.636Z,12.30
2022-09-21T01:50:56.518Z,12.12
2022-09-21T01:52:01.938Z,12.10
2022-09-21T01:53:14.790Z,12.11
2022-09-21T01:54:21.873Z,12.10
2022-09-21T01:55:28.645Z,12.13
2022-09-21T01:56:34.965Z,12.14
2022-09-21T01:57:39.743Z,11.99
2022-09-21T01:58:46.493Z,12.02
2022-09-21T01:59:51.780Z,12.13
2022-09-21T02:00:56.815Z,12.15
2022-09-21T02:02:05.703Z,12.28
2022-09-21T02:03:10.804Z,12.24
2022-09-21T02:04:14.357Z,12.30
2022-09-21T02:05:22.371Z,12.32
2022-09-21T02:06:27.688Z,12.23
2022-09-21T02:07:32.691Z,12.23
2022-09-21T02:08:36.284Z,12.26
2022-09-21T02:09:38.822Z,12.15
2022-09-21T02:10:49.991Z,12.06
2022-09-21T02:11:54.409Z,12.14
2022-09-21T02:13:03.154Z,12.24
2022-09-21T02:14:08.464Z,12.32
2022-09-21T02:15:11.908Z,12.36
2022-09-21T02:16:25.948Z,12.40
2022-09-21T02:17:47.356Z,12.45
2022-09-21T02:19:10.353Z,12.29
2022-09-21T02:20:18.818Z,12.27
2022-09-21T02:21:36.167Z,12.31
2022-09-21T02:22:49.853Z,12.28
2022-09-21T02:23:56.760Z,12.25
2022-09-21T02:25:07.849Z,12.20
2022-09-21T02:26:12.800Z,12.24
2022-09-21T02:27:35.909Z,12.26
2022-09-21T02:28:40.869Z,12.23
2022-09-21T02:29:47.512Z,12.15
2022-09-21T02:30:53.734Z,12.11
2022-09-21T02:31:58.691Z,12.17
2022-09-21T02:33:12.580Z,12.25
2022-09-21T02:34:18.541Z,12.33
2022-09-21T02:35:43.439Z,12.42
2022-09-21T02:37:00.181Z,12.32
2022-09-21T02:38:20.883Z,12.11
2022-09-21T02:39:26.016Z,12.06
2022-09-21T02:40:43.363Z,12.20
2022-09-21T02:41:52.262Z,12.15
2022-09-21T02:42:58.339Z,12.07
2022-09-21T02:44:06.282Z,12.14
2022-09-21T02:45:17.346Z,12.16
2022-09-21T02:46:22.868Z,12.06
2022-09-21T02:47:29.271Z,11.98
2022-09-21T02:48:35.390Z,11.95
2022-09-21T02:49:42.498Z,11.94
2022-09-21T02:50:47.605Z,12.01
2022-09-21T02:51:52.836Z,12.04
2022-09-21T02:52:56.294Z,12.01
2022-09-21T02:54:01.783Z,12.11
2022-09-21T02:55:06.038Z,12.08
2022-09-21T02:56:09.854Z,12.15
2022-09-21T02:57:14.012Z,12.07
2022-09-21T02:58:18.732Z,12.02
2022-09-21T02:59:24.806Z,11.98
2022-09-21T03:00:27.393Z,11.94
2022-09-21T03:01:31.440Z,11.96
2022-09-21T03:02:38.866Z,11.86
2022-09-21T03:03:42.168Z,11.97
2022-09-21T03:04:48.153Z,11.84
2022-09-21T03:05:55.653Z,11.80
2022-09-21T03:06:59.361Z,11.75
2022-09-21T03:08:02.595Z,11.82
2022-09-21T03:09:05.905Z,11.84
2022-09-21T03:10:09.582Z,11.83
2022-09-21T03:11:17.537Z,11.97
2022-09-21T03:12:20.555Z,11.82
2022-09-21T03:13:22.955Z,11.86
2022-09-21T03:14:26.144Z,11.89
2022-09-21T03:15:29.642Z,11.79
2022-09-21T03:16:33.017Z,11.83
2022-09-21T03:17:36.096Z,11.95
2022-09-21T03:18:41.567Z,12.05
2022-09-21T03:19:44.849Z,12.02
2022-09-21T03:20:47.910Z,12.06
2022-09-21T03:21:50.942Z,12.11
2022-09-21T03:22:56.002Z,12.02
2022-09-21T03:23:59.228Z,12.01
2022-09-21T03:25:02.406Z,12.06
2022-09-21T03:26:07.457Z,12.06
2022-09-21T03:27:10.590Z,12.07
2022-09-21T03:28:15.021Z,11.93
2022-09-21T03:29:18.447Z,11.88
2022-09-21T03:30:22.589Z,11.95
2022-09-21T03:31:25.773Z,12.07
2022-09-21T03:32:30.988Z,12.12
2022-09-21T03:33:34.503Z,12.01
2022-09-21T03:34:37.681Z,11.95
2022-09-21T03:35:41.371Z,12.01
2022-09-21T03:36:44.457Z,11.95
2022-09-21T03:37:46.977Z,11.97
2022-09-21T03:38:52.877Z,11.90
2022-09-21T03:39:56.202Z,11.89
2022-09-21T03:40:59.325Z,11.88
2022-09-21T03:42:04.007Z,11.96
2022-09-21T03:43:07.361Z,12.07
2022-09-21T03:44:10.172Z,12.13
2022-09-21T03:45:13.549Z,12.21
2022-09-21T03:46:16.936Z,12.17
2022-09-21T03:47:21.052Z,12.00
2022-09-21T03:48:24.538Z,11.74
2022-09-21T03:49:26.744Z,11.86
2022-09-21T03:50:30.609Z,11.80
2022-09-21T03:51:33.039Z,11.86
2022-09-21T03:52:38.735Z,11.97
2022-09-21T03:53:44.656Z,11.81
2022-09-21T03:54:48.697Z,11.71
2022-09-21T03:55:50.912Z,11.85
2022-09-21T03:56:53.950Z,12.04
2022-09-21T03:57:57.827Z,12.01
2022-09-21T03:59:01.348Z,12.04
2022-09-21T04:00:07.119Z,11.99
2022-09-21T04:01:10.410Z,11.92
2022-09-21T04:02:14.888Z,12.01
2022-09-21T04:03:18.137Z,11.93
2022-09-21T04:04:22.051Z,11.97
2022-09-21T04:05:26.387Z,12.07
2022-09-21T04:06:29.708Z,12.05
2022-09-21T04:07:34.162Z,12.09
2022-09-21T04:08:37.289Z,12.09
2022-09-21T04:09:42.972Z,11.96
2022-09-21T04:10:46.051Z,11.91
2022-09-21T04:11:48.225Z,12.01
2022-09-21T04:12:53.745Z,12.07
2022-09-21T04:13:57.452Z,12.05
2022-09-21T04:15:01.823Z,11.96
2022-09-21T04:16:05.494Z,11.89
2022-09-21T04:17:10.433Z,11.91
2022-09-21T04:18:14.066Z,11.93
2022-09-21T04:19:17.035Z,12.09
2022-09-21T04:20:23.544Z,12.04
2022-09-21T04:21:26.710Z,12.00
2022-09-21T04:22:29.120Z,12.03
2022-09-21T04:23:32.578Z,11.83
2022-09-21T04:24:42.516Z,11.94
2022-09-21T04:25:49.478Z,11.96
2022-09-21T04:26:53.761Z,11.78
2022-09-21T04:27:57.851Z,11.96
2022-09-21T04:29:03.329Z,12.11
2022-09-21T04:30:09.021Z,12.21
2022-09-21T04:31:13.975Z,12.04
2022-09-21T04:32:17.224Z,12.04
2022-09-21T04:33:24.328Z,12.12
2022-09-21T04:34:31.275Z,12.06
2022-09-21T04:35:36.241Z,12.13
2022-09-21T04:36:41.909Z,12.18
2022-09-21T04:37:46.083Z,12.15
2022-09-21T04:38:51.269Z,12.11
2022-09-21T04:39:56.417Z,11.98
2022-09-21T04:41:01.526Z,11.93
2022-09-21T04:42:06.720Z,11.99
2022-09-21T04:43:09.937Z,12.12
2022-09-21T04:44:14.219Z,12.16
2022-09-21T04:45:17.405Z,12.27
2022-09-21T04:46:20.313Z,12.24
2022-09-21T04:47:24.505Z,12.03
2022-09-21T04:48:27.071Z,12.04
2022-09-21T04:49:30.407Z,12.17
2022-09-21T04:50:33.605Z,12.10
2022-09-21T04:51:41.921Z,12.17
2022-09-21T04:52:45.274Z,12.21
2022-09-21T04:53:48.718Z,12.14
2022-09-21T04:54:51.328Z,12.24
2022-09-21T04:55:54.960Z,12.07
2022-09-21T04:56:58.146Z,12.00
2022-09-21T04:58:01.269Z,12.02
2022-09-21T04:59:05.359Z,12.02
2022-09-21T05:00:09.069Z,12.06
2022-09-21T05:01:12.368Z,12.10
2022-09-21T05:02:16.041Z,12.01
2022-09-21T05:03:21.008Z,11.91
2022-09-21T05:04:24.400Z,11.96
2022-09-21T05:05:28.227Z,11.96
2022-09-21T05:06:31.729Z,11.87
2022-09-21T05:07:34.838Z,11.90
2022-09-21T05:08:56.512Z,11.85
2022-09-21T05:10:08.158Z,12.02
2022-09-21T05:11:16.722Z,12.19
2022-09-21T05:12:19.190Z,12.23
2022-09-21T05:13:21.747Z,12.23
2022-09-21T05:14:24.859Z,12.28
2022-09-21T05:15:29.235Z,12.27
2022-09-21T05:16:32.573Z,12.03
2022-09-21T05:17:35.858Z,11.98
2022-09-21T05:18:38.083Z,12.18
2022-09-21T05:19:41.764Z,12.21
2022-09-21T05:20:44.979Z,12.24
2022-09-21T05:21:47.647Z,12.35
2022-09-21T05:22:50.891Z,12.24
2022-09-21T05:23:54.849Z,12.12
2022-09-21T05:24:57.028Z,12.22
2022-09-21T05:26:00.552Z,12.37
2022-09-21T05:27:05.721Z,12.25
2022-09-21T05:28:09.361Z,12.22
2022-09-21T05:29:12.266Z,12.25
2022-09-21T05:30:15.801Z,12.33
2022-09-21T05:31:24.293Z,12.28
2022-09-21T05:32:47.830Z,12.30
2022-09-21T05:34:02.481Z,12.25
2022-09-21T05:35:18.522Z,12.25
2022-09-21T05:36:28.396Z,12.40
2022-09-21T05:37:39.478Z,12.42
2022-09-21T05:38:42.567Z,12.38
2022-09-21T05:39:45.209Z,12.39
2022-09-21T05:40:51.573Z,12.37
2022-09-21T05:41:55.512Z,12.16
2022-09-21T05:42:58.794Z,12.09
2022-09-21T05:44:02.230Z,11.99
2022-09-21T05:45:05.753Z,12.06
2022-09-21T05:46:09.838Z,12.07
2022-09-21T05:47:27.782Z,12.29
2022-09-21T05:48:32.854Z,12.33
2022-09-21T05:49:46.916Z,12.36
2022-09-21T05:50:51.832Z,12.19
2022-09-21T05:52:07.147Z,12.01
2022-09-21T05:53:11.858Z,11.97
2022-09-21T05:54:16.924Z,12.27
2022-09-21T05:55:20.939Z,12.30
2022-09-21T05:56:40.269Z,12.32
2022-09-21T05:57:57.702Z,12.44
2022-09-21T05:59:05.379Z,12.44
2022-09-21T06:00:22.071Z,12.22
2022-09-21T06:01:29.294Z,12.12
2022-09-21T06:02:51.285Z,12.21
2022-09-21T06:03:54.637Z,12.35
2022-09-21T06:04:58.202Z,12.32
2022-09-21T06:06:01.749Z,12.09
2022-09-21T06:07:05.907Z,12.08
2022-09-21T06:08:09.089Z,12.27
2022-09-21T06:09:11.618Z,12.38
2022-09-21T06:10:15.438Z,12.46
2022-09-21T06:11:18.985Z,12.46
2022-09-21T06:12:22.060Z,12.26
2022-09-21T06:13:25.478Z,12.27
2022-09-21T06:14:29.148Z,12.12
2022-09-21T06:15:33.243Z,12.24
2022-09-21T06:16:37.494Z,12.17
2022-09-21T06:17:41.090Z,12.24
2022-09-21T06:18:44.142Z,12.36
2022-09-21T06:19:47.302Z,12.20
2022-09-21T06:20:50.570Z,12.30
2022-09-21T06:21:53.818Z,12.45
2022-09-21T06:23:01.383Z,12.51
2022-09-21T06:24:04.822Z,12.55
2022-09-21T06:25:09.767Z,12.52
2022-09-21T06:26:13.254Z,12.36
2022-09-21T06:27:18.520Z,12.30
2022-09-21T06:28:21.880Z,12.46
2022-09-21T06:29:25.129Z,12.62
2022-09-21T06:30:31.318Z,12.60
2022-09-21T06:31:36.306Z,12.58
2022-09-21T06:32:39.384Z,12.39
2022-09-21T06:33:48.127Z,12.41
2022-09-21T06:34:52.065Z,12.46
2022-09-21T06:35:58.189Z,12.49
2022-09-21T06:37:02.514Z,12.38
2022-09-21T06:38:06.481Z,12.50
2022-09-21T06:39:09.721Z,12.66
2022-09-21T06:40:12.984Z,12.44
2022-09-21T06:41:20.854Z,12.32
2022-09-21T06:42:22.455Z,12.44
2022-09-21T06:43:25.471Z,12.59
2022-09-21T06:44:29.313Z,12.41
2022-09-21T06:45:35.847Z,12.41
2022-09-21T06:46:41.286Z,12.29
2022-09-21T06:47:45.486Z,12.41
2022-09-21T06:48:48.703Z,12.27
2022-09-21T06:49:52.750Z,12.50
2022-09-21T06:51:02.715Z,12.52
2022-09-21T06:52:05.936Z,12.56
2022-09-21T06:53:09.268Z,12.74
2022-09-21T06:54:13.366Z,12.68
2022-09-21T06:55:16.576Z,12.85
2022-09-21T06:56:19.730Z,12.93
2022-09-21T06:57:25.607Z,12.77
2022-09-21T06:58:30.422Z,12.82
2022-09-21T06:59:32.625Z,12.77
2022-09-21T07:00:35.932Z,12.74
2022-09-21T07:01:38.718Z,12.82
2022-09-21T07:02:45.267Z,12.65
2022-09-21T07:03:52.387Z,12.53
2022-09-21T07:04:56.112Z,12.48
2022-09-21T07:06:02.051Z,12.56
2022-09-21T07:07:05.918Z,12.63
2022-09-21T07:10:21.824Z,13.11
2022-09-21T07:11:25.578Z,13.16
2022-09-21T07:12:29.819Z,13.33
2022-09-21T07:13:33.125Z,13.46
2022-09-21T07:14:35.410Z,13.31
2022-09-21T07:15:41.105Z,13.35
2022-09-21T07:16:44.289Z,13.34
2022-09-21T07:17:52.305Z,13.18
2022-09-21T07:19:09.731Z,13.37
2022-09-21T07:20:02.929Z,13.53
2022-09-21T07:21:07.147Z,13.52
2022-09-21T07:22:11.412Z,13.57
2022-09-21T07:23:15.679Z,13.45
2022-09-21T07:24:18.813Z,13.38
2022-09-21T07:25:22.091Z,13.51
2022-09-21T07:26:26.515Z,13.84
2022-09-21T07:27:30.182Z,13.94
2022-09-21T07:28:34.417Z,13.93
2022-09-21T07:29:37.645Z,13.98
2022-09-21T07:30:41.077Z,14.51
2022-09-21T07:31:45.408Z,14.65
2022-09-21T07:32:51.862Z,14.89
2022-09-21T07:34:00.324Z,14.76
2022-09-21T07:35:03.840Z,14.56
2022-09-21T07:36:12.575Z,14.48
2022-09-21T07:37:16.799Z,14.28
2022-09-21T07:38:20.380Z,14.21
2022-09-21T07:39:23.439Z,14.52
2022-09-21T07:40:26.559Z,14.61
2022-09-21T07:41:29.870Z,14.49
2022-09-21T07:42:33.092Z,14.45
2022-09-21T07:43:36.625Z,14.66
2022-09-21T07:44:39.957Z,14.81
2022-09-21T07:45:47.059Z,14.99
2022-09-21T07:46:51.642Z,15.07
2022-09-21T07:47:59.938Z,15.15
2022-09-21T07:49:04.770Z,15.33
2022-09-21T07:50:08.682Z,15.34
2022-09-21T07:51:12.610Z,15.71
2022-09-21T07:52:16.270Z,15.63
2022-09-21T07:53:20.522Z,15.71
2022-09-21T07:54:23.578Z,15.69
2022-09-21T07:55:26.952Z,15.64
2022-09-21T07:56:30.312Z,15.68
2022-09-21T07:57:50.956Z,15.71
2022-09-21T07:59:09.270Z,15.64
2022-09-21T08:00:12.287Z,15.74
2022-09-21T08:01:15.196Z,15.46
2022-09-21T08:02:18.640Z,15.23
2022-09-21T08:03:21.808Z,15.13
2022-09-21T08:04:28.096Z,15.16
2022-09-21T08:05:32.450Z,14.87
2022-09-21T08:06:37.785Z,14.68
2022-09-21T08:07:41.126Z,14.47
2022-09-21T08:08:45.717Z,14.14
2022-09-21T08:09:50.807Z,14.13
2022-09-21T08:10:55.086Z,14.52
2022-09-21T08:11:59.846Z,14.62
2022-09-21T08:13:03.333Z,14.24
2022-09-21T08:14:06.434Z,14.17
2022-09-21T08:15:37.090Z,14.13
2022-09-21T08:16:20.756Z,14.25
2022-09-21T08:17:24.989Z,14.22
2022-09-21T08:18:28.466Z,14.04
2022-09-21T08:19:31.494Z,14.24
2022-09-21T08:20:35.386Z,14.28
2022-09-21T08:21:37.786Z,13.99
2022-09-21T08:22:41.208Z,13.84
2022-09-21T08:23:44.373Z,13.69
2022-09-21T08:24:49.298Z,13.82
2022-09-21T08:25:53.123Z,13.96
2022-09-21T08:26:56.439Z,13.96
2022-09-21T08:28:00.075Z,13.84
2022-09-21T08:29:03.329Z,13.56
2022-09-21T08:30:07.518Z,13.46
2022-09-21T08:31:11.908Z,13.34
2022-09-21T08:32:33.093Z,13.23
2022-09-21T08:33:20.010Z,13.37
2022-09-21T08:34:24.462Z,13.58
2022-09-21T08:35:27.562Z,13.51
2022-09-21T08:36:30.826Z,13.26
2022-09-21T08:37:35.794Z,13.44
2022-09-21T08:38:41.221Z,13.46
2022-09-21T08:39:43.584Z,13.35
2022-09-21T08:40:46.608Z,13.49
2022-09-21T08:41:55.269Z,13.51
2022-09-21T08:43:15.075Z,13.51
2022-09-21T08:44:20.023Z,13.29
2022-09-21T08:45:24.261Z,13.40
2022-09-21T08:46:29.232Z,13.51
2022-09-21T08:47:40.370Z,13.65
2022-09-21T08:48:47.664Z,13.62
2022-09-21T08:49:55.221Z,13.48
2022-09-21T08:51:03.313Z,13.43
2022-09-21T08:52:08.233Z,13.36
2022-09-21T08:53:12.433Z,13.36
2022-09-21T08:54:17.339Z,13.32
2022-09-21T08:55:21.344Z,13.31
2022-09-21T08:56:32.861Z,13.42
2022-09-21T08:57:31.249Z,13.33
2022-09-21T08:58:34.383Z,13.44
2022-09-21T08:59:39.562Z,13.36
2022-09-21T09:00:43.064Z,13.15
2022-09-21T09:01:58.852Z,13.28
2022-09-21T09:03:13.828Z,13.44
2022-09-21T09:04:30.546Z,13.34
2022-09-21T09:05:35.638Z,13.17
2022-09-21T09:06:42.611Z,13.29
2022-09-21T09:08:04.194Z,13.28
2022-09-21T09:09:26.782Z,13.56
2022-09-21T09:10:35.937Z,13.87
2022-09-21T09:11:41.147Z,13.89
2022-09-21T09:12:46.349Z,14.18
2022-09-21T09:13:50.438Z,14.53
2022-09-21T09:15:03.515Z,14.65
2022-09-21T09:16:07.504Z,14.82
2022-09-21T09:17:12.655Z,14.73
2022-09-21T09:18:26.356Z,14.57
2022-09-21T09:19:31.699Z,14.49
2022-09-21T09:20:36.881Z,14.69
2022-09-21T09:21:41.254Z,14.98
2022-09-21T09:22:45.954Z,15.02
2022-09-21T09:23:49.986Z,14.92
2022-09-21T09:24:56.217Z,15.04
2022-09-21T09:26:01.438Z,15.32
2022-09-21T09:27:21.546Z,15.69
2022-09-21T09:28:26.445Z,15.60
2022-09-21T09:29:45.238Z,16.04
2022-09-21T09:30:48.810Z,15.99
2022-09-21T09:31:54.393Z,16.17
2022-09-21T09:33:05.580Z,16.57
2022-09-21T09:34:13.285Z,16.26
2022-09-21T09:35:34.665Z,16.33
2022-09-21T09:36:57.876Z,16.17
2022-09-21T09:37:46.514Z,16.08
2022-09-21T09:38:58.971Z,16.46
2022-09-21T09:40:02.398Z,16.56
2022-09-21T09:41:10.745Z,16.64
2022-09-21T09:42:27.456Z,16.87
2022-09-21T09:43:32.556Z,17.24
2022-09-21T09:44:43.536Z,17.48
2022-09-21T09:45:51.634Z,17.96
2022-09-21T09:46:56.735Z,17.40
2022-09-21T09:48:04.966Z,17.11
2022-09-21T09:49:13.605Z,16.99
2022-09-21T09:50:22.033Z,17.02
2022-09-21T09:51:27.173Z,17.17
2022-09-21T09:52:33.382Z,16.94
2022-09-21T09:53:35.749Z,16.91
2022-09-21T09:54:39.138Z,16.63
2022-09-21T09:55:45.522Z,17.00
2022-09-21T09:56:48.567Z,16.80
2022-09-21T09:57:53.691Z,17.05
2022-09-21T09:59:04.936Z,17.16
2022-09-21T10:00:12.325Z,17.33
2022-09-21T10:01:32.697Z,17.43
2022-09-21T10:02:37.760Z,17.48
2022-09-21T10:03:40.385Z,17.14
2022-09-21T10:04:48.275Z,16.67
2022-09-21T10:05:51.646Z,16.52
2022-09-21T10:06:55.026Z,16.71
2022-09-21T10:08:00.314Z,16.58
2022-09-21T10:09:21.366Z,16.39
2022-09-21T10:10:25.522Z,16.27
2022-09-21T10:11:35.538Z,16.05
2022-09-21T10:12:38.904Z,15.72
2022-09-21T10:13:45.886Z,15.82
2022-09-21T10:14:50.132Z,16.05
2022-09-21T10:15:58.706Z,16.06
2022-09-21T10:17:06.208Z,16.07
2022-09-21T10:18:19.917Z,16.05
2022-09-21T10:19:24.707Z,15.78
2022-09-21T10:20:27.747Z,16.06
2022-09-21T10:21:41.787Z,16.39
2022-09-21T10:22:48.388Z,16.30
2022-09-21T10:23:59.055Z,15.92
2022-09-21T10:25:08.458Z,16.09
2022-09-21T10:26:14.349Z,16.12
2022-09-21T10:27:20.279Z,15.90
2022-09-21T10:28:23.737Z,15.82
2022-09-21T10:29:27.909Z,15.81
2022-09-21T10:30:32.972Z,15.86
2022-09-21T10:31:36.456Z,15.88
2022-09-21T10:32:43.066Z,15.87
2022-09-21T10:33:50.934Z,15.65
2022-09-21T10:35:01.796Z,15.64
2022-09-21T10:36:09.114Z,15.87
2022-09-21T10:37:26.080Z,15.99
2022-09-21T10:38:30.316Z,16.11
2022-09-21T10:39:33.318Z,16.32
2022-09-21T10:40:37.721Z,16.05
2022-09-21T10:41:40.028Z,15.97
2022-09-21T10:42:43.782Z,16.04
2022-09-21T10:43:51.372Z,15.99
2022-09-21T10:44:57.383Z,15.83
2022-09-21T10:46:00.977Z,15.80
2022-09-21T10:47:05.337Z,15.65
2022-09-21T10:48:13.530Z,15.74
2022-09-21T10:49:27.391Z,16.05
2022-09-21T10:50:31.485Z,16.26
2022-09-21T10:51:36.191Z,16.16
2022-09-21T10:52:48.115Z,16.24
2022-09-21T10:53:54.678Z,16.16
2022-09-21T10:55:01.154Z,15.94
2022-09-21T10:56:17.202Z,15.64
2022-09-21T10:57:15.714Z,15.86
2022-09-21T10:58:20.092Z,15.81
2022-09-21T10:59:25.049Z,15.81
2022-09-21T11:00:35.477Z,15.85
2022-09-21T11:01:39.533Z,15.66
2022-09-21T11:02:44.757Z,15.86
2022-09-21T11:03:58.577Z,15.84
2022-09-21T11:05:04.031Z,15.83
2022-09-21T11:06:09.153Z,15.92
2022-09-21T11:07:14.480Z,15.97
2022-09-21T11:08:24.361Z,15.70
2022-09-21T11:09:41.327Z,15.38
2022-09-21T11:10:47.250Z,15.26
2022-09-21T11:11:52.903Z,15.17
2022-09-21T11:13:05.848Z,15.30
2022-09-21T11:14:16.945Z,15.21
2022-09-21T11:15:29.588Z,15.42
2022-09-21T11:16:45.819Z,15.17
2022-09-21T11:18:06.309Z,15.09
2022-09-21T11:19:17.087Z,15.13
2022-09-21T11:20:24.039Z,15.36
2022-09-21T11:21:29.886Z,15.35
2022-09-21T11:22:35.070Z,15.35
2022-09-21T11:23:41.902Z,15.60
2022-09-21T11:24:49.532Z,15.72
2022-09-21T11:25:57.667Z,16.04
2022-09-21T11:27:04.325Z,16.09
2022-09-21T11:28:26.446Z,16.00
2022-09-21T11:29:41.617Z,15.96
2022-09-21T11:30:48.711Z,15.73
2022-09-21T11:31:59.121Z,15.60
2022-09-21T11:33:03.390Z,15.75
2022-09-21T11:34:11.215Z,15.72
2022-09-21T11:35:27.377Z,15.47
2022-09-21T11:36:48.583Z,15.60
2022-09-21T11:38:09.513Z,15.45
2022-09-21T11:39:17.111Z,15.22
2022-09-21T11:40:23.182Z,15.50
2022-09-21T11:41:36.147Z,15.31
2022-09-21T11:42:43.397Z,15.39
2022-09-21T11:43:53.835Z,15.35
2022-09-21T11:45:00.772Z,15.48
2022-09-21T11:46:09.151Z,15.26
2022-09-21T11:47:17.494Z,15.28
2022-09-21T11:48:37.910Z,15.30
2022-09-21T11:49:45.368Z,15.35
2022-09-21T11:52:12.793Z,15.66
2022-09-21T11:53:23.755Z,15.64
2022-09-21T11:54:34.892Z,15.70
2022-09-21T11:55:45.710Z,15.80
2022-09-21T11:56:50.618Z,16.02
2022-09-21T11:57:57.475Z,15.81
2022-09-21T11:59:16.913Z,15.68
2022-09-21T12:00:22.773Z,15.92
2022-09-21T12:01:31.708Z,15.63
2022-09-21T12:02:54.324Z,15.32
2022-09-21T12:03:59.391Z,15.48
2022-09-21T12:05:05.426Z,15.58
2022-09-21T12:06:13.209Z,15.64
2022-09-21T12:07:20.368Z,15.57
2022-09-21T12:08:42.609Z,15.60
2022-09-21T12:09:50.599Z,15.85
2022-09-21T12:11:00.687Z,15.91
2022-09-21T12:12:08.767Z,15.79
2022-09-21T12:13:16.621Z,15.57
2022-09-21T12:14:22.021Z,15.61
2022-09-21T12:15:36.202Z,15.71
2022-09-21T12:16:41.421Z,15.68
2022-09-21T12:17:54.763Z,15.60
2022-09-21T12:18:59.959Z,15.55
2022-09-21T12:20:04.578Z,15.52
2022-09-21T12:21:26.990Z,15.77
2022-09-21T12:22:35.197Z,16.01
2022-09-21T12:23:46.132Z,16.09
2022-09-21T12:24:50.592Z,16.07
2022-09-21T12:25:57.568Z,15.95
2022-09-21T12:27:06.268Z,16.11
2022-09-21T12:28:19.618Z,16.23
2022-09-21T12:29:43.318Z,16.22
2022-09-21T12:30:49.516Z,16.00
2022-09-21T12:32:01.119Z,16.22
2022-09-21T12:33:06.201Z,16.19
2022-09-21T12:34:14.010Z,16.36
2022-09-21T12:35:19.101Z,16.56
2022-09-21T12:36:39.495Z,16.59
2022-09-21T12:37:50.411Z,16.71
2022-09-21T12:39:05.139Z,16.95
2022-09-21T12:40:10.438Z,17.00
2022-09-21T12:41:17.403Z,16.82
2022-09-21T12:42:28.253Z,16.71
2022-09-21T12:43:48.587Z,16.77
2022-09-21T12:44:56.210Z,16.46
2022-09-21T12:46:06.590Z,16.55
2022-09-21T12:48:34.339Z,16.35
2022-09-21T12:49:38.902Z,16.10
2022-09-21T12:50:49.855Z,16.29
2022-09-21T12:51:54.682Z,16.26
2022-09-21T12:52:59.859Z,16.26
2022-09-21T12:54:09.840Z,16.23
2022-09-21T12:56:44.730Z,16.10
2022-09-21T12:58:13.989Z,16.13
2022-09-21T12:59:03.539Z,16.12
2022-09-21T13:00:09.082Z,16.31
2022-09-21T13:01:27.415Z,16.55
2022-09-21T13:02:35.672Z,16.30
2022-09-21T13:03:44.819Z,16.03
2022-09-21T13:05:07.875Z,15.78
2022-09-21T13:06:22.862Z,15.89
2022-09-21T13:07:31.370Z,15.68
2022-09-21T13:08:37.402Z,15.78
2022-09-21T13:09:45.735Z,15.74
2022-09-21T13:10:55.069Z,15.75
2022-09-21T13:11:58.238Z,15.66
2022-09-21T13:13:04.782Z,15.51
2022-09-21T13:14:08.182Z,15.54
2022-09-21T13:15:22.403Z,15.64
2022-09-21T13:16:30.532Z,15.73
2022-09-21T13:17:34.399Z,15.47
2022-09-21T13:18:40.714Z,15.46
2022-09-21T13:19:44.915Z,15.46
2022-09-21T13:20:49.372Z,15.55
2022-09-21T13:22:16.418Z,15.63
2022-09-21T13:23:22.666Z,15.78
2022-09-21T13:24:28.703Z,15.81
2022-09-21T13:25:35.202Z,15.76
2022-09-21T13:26:41.561Z,15.99
2022-09-21T13:28:04.782Z,15.63
2022-09-21T13:29:22.934Z,15.55
2022-09-21T13:30:38.985Z,15.69
2022-09-21T13:31:45.764Z,15.96
2022-09-21T13:32:52.783Z,15.42
2022-09-21T13:34:14.674Z,15.31
2022-09-21T13:35:36.131Z,15.52
2022-09-21T13:36:39.217Z,15.54
2022-09-21T13:37:45.765Z,15.73
2022-09-21T13:38:53.654Z,15.54
2022-09-21T13:40:04.799Z,15.59
2022-09-21T13:41:13.210Z,15.87
2022-09-21T13:43:47.300Z,16.32
2022-09-21T13:44:50.871Z,16.09
2022-09-21T13:45:56.440Z,15.70
2022-09-21T13:47:01.098Z,15.63
2022-09-21T13:48:06.503Z,15.61
2022-09-21T13:49:15.127Z,15.58
2022-09-21T13:50:26.806Z,15.88
2022-09-21T13:51:34.882Z,16.15
2022-09-21T13:52:41.726Z,16.49
2022-09-21T13:53:46.682Z,16.70
2022-09-21T13:54:51.490Z,16.88
2022-09-21T13:55:57.386Z,16.97
2022-09-21T13:57:17.983Z,17.16
2022-09-21T13:58:24.081Z,17.21
2022-09-21T13:59:28.482Z,17.26
2022-09-21T14:00:33.835Z,17.13
2022-09-21T14:01:47.206Z,17.21
2022-09-21T14:02:46.363Z,17.13
2022-09-21T14:03:57.298Z,17.04
2022-09-21T14:05:02.790Z,17.07
2022-09-21T14:06:09.035Z,16.83
2022-09-21T14:07:13.958Z,16.69
2022-09-21T14:08:22.051Z,16.64
2022-09-21T14:09:27.457Z,16.38
2022-09-21T14:10:32.247Z,16.18
2022-09-21T14:11:43.694Z,15.96
2022-09-21T14:12:47.677Z,15.87
2022-09-21T14:14:01.319Z,15.83
2022-09-21T14:15:12.559Z,15.74
2022-09-21T14:16:37.603Z,15.50
2022-09-21T14:17:41.204Z,15.47
2022-09-21T14:18:46.579Z,15.42
2022-09-21T14:19:55.099Z,15.64
2022-09-21T14:21:09.455Z,15.44
2022-09-21T14:22:15.884Z,15.48
2022-09-21T14:23:25.876Z,15.56
2022-09-21T14:24:43.167Z,15.60
2022-09-21T14:25:51.717Z,15.64
2022-09-21T14:27:10.898Z,15.74
2022-09-21T14:28:14.329Z,15.73